sensor_id;sensor_type;location;lat;lon;timestamp;P1;durP1;ratioP1;P2;durP2;ratioP2
64208;SDS011;50527;52.414;13.226;2022-10-03T17:51:56;7.07;;;0.75;;
64208;SDS011;50527;52.414;13.226;2022-10-03T17:54:24;6.78;;;1.38;;
64208;SDS011;50527;52.414;13.226;2022-10-03T17:56:58;4.95;;;1.35;;
64208;SDS011;50527;52.414;13.226;2022-10-03T17:59:29;5.60;;;1.58;;
64208;SDS011;50527;52.414;13.226;2022-10-03T18:02:02;6.82;;;2.90;;
64208;SDS011;50527;52.414;13.226;2022-10-03T18:04:39;3.35;;;0.73;;
64208;SDS011;50527;52.414;13.226;2022-10-03T18:07:12;1.88;;;0.52;;
64208;SDS011;50527;52.414;13.226;2022-10-03T18:09:46;8.88;;;0.90;;
64208;SDS011;50527;52.414;13.226;2022-10-03T18:12:28;7.53;;;1.10;;
64208;SDS011;50527;52.414;13.226;2022-10-03T18:17:57;7.75;;;3.00;;
64208;SDS011;50527;52.414;13.226;2022-10-03T18:20:46;12.63;;;2.95;;
64208;SDS011;50527;52.414;13.226;2022-10-03T18:23:22;6.35;;;1.98;;
64208;SDS011;50527;52.414;13.226;2022-10-03T18:26:04;4.07;;;1.33;;
64208;SDS011;50527;52.414;13.226;2022-10-03T18:28:43;4.82;;;1.30;;
64208;SDS011;50527;52.414;13.226;2022-10-03T18:31:24;4.72;;;0.98;;
64208;SDS011;50527;52.414;13.226;2022-10-03T18:33:53;3.15;;;0.80;;
64208;SDS011;50527;52.414;13.226;2022-10-03T18:36:30;3.60;;;0.63;;
64208;SDS011;50527;52.414;13.226;2022-10-03T18:39:13;4.53;;;0.73;;
64208;SDS011;50527;52.414;13.226;2022-10-03T18:41:45;4.28;;;0.82;;
64208;SDS011;50527;52.414;13.226;2022-10-03T18:44:15;4.50;;;1.00;;
64208;SDS011;50527;52.414;13.226;2022-10-03T18:46:42;4.32;;;0.80;;
64208;SDS011;50527;52.414;13.226;2022-10-03T18:49:15;4.55;;;1.20;;
64208;SDS011;50527;52.414;13.226;2022-10-03T18:51:52;4.68;;;1.70;;
64208;SDS011;50527;52.414;13.226;2022-10-03T18:54:24;13.63;;;6.10;;
64208;SDS011;50527;52.414;13.226;2022-10-03T18:57:20;6.63;;;3.00;;
64208;SDS011;50527;52.414;13.226;2022-10-03T18:59:50;5.72;;;1.77;;
64208;SDS011;50527;52.414;13.226;2022-10-03T19:02:39;7.13;;;1.90;;
64208;SDS011;50527;52.414;13.226;2022-10-03T19:05:19;7.32;;;2.38;;
64208;SDS011;50527;52.414;13.226;2022-10-03T19:07:47;5.68;;;1.80;;
64208;SDS011;50527;52.414;13.226;2022-10-03T19:10:22;10.27;;;1.70;;
64208;SDS011;50527;52.414;13.226;2022-10-03T19:13:08;6.32;;;1.52;;
64208;SDS011;50527;52.414;13.226;2022-10-03T19:15:47;2.42;;;1.00;;
64208;SDS011;50527;52.414;13.226;2022-10-03T19:18:27;6.18;;;1.50;;
64208;SDS011;50527;52.414;13.226;2022-10-03T19:21:08;4.93;;;1.80;;
64208;SDS011;50527;52.414;13.226;2022-10-03T19:23:42;6.80;;;1.20;;
64208;SDS011;50527;52.414;13.226;2022-10-03T19:26:18;5.57;;;1.17;;
64208;SDS011;50527;52.414;13.226;2022-10-03T19:28:55;7.68;;;1.00;;
64208;SDS011;50527;52.414;13.226;2022-10-03T19:34:05;4.65;;;0.50;;
64208;SDS011;50527;52.414;13.226;2022-10-03T19:36:45;3.40;;;0.50;;
64208;SDS011;50527;52.414;13.226;2022-10-03T19:39:14;5.32;;;0.65;;
64208;SDS011;50527;52.414;13.226;2022-10-03T19:41:45;8.60;;;0.80;;
64208;SDS011;50527;52.414;13.226;2022-10-03T19:44:16;4.75;;;0.75;;
64208;SDS011;50527;52.414;13.226;2022-10-03T19:49:53;4.53;;;0.77;;
64208;SDS011;50527;52.414;13.226;2022-10-03T19:52:28;2.80;;;0.40;;
64208;SDS011;50527;52.414;13.226;2022-10-03T19:55:12;6.00;;;0.77;;
64208;SDS011;50527;52.414;13.226;2022-10-03T19:57:51;5.13;;;0.70;;
64208;SDS011;50527;52.414;13.226;2022-10-03T20:02:52;4.60;;;0.73;;
64208;SDS011;50527;52.414;13.226;2022-10-03T20:05:18;5.97;;;0.68;;
64208;SDS011;50527;52.414;13.226;2022-10-03T20:07:57;3.70;;;0.40;;
64208;SDS011;50527;52.414;13.226;2022-10-03T20:10:53;4.57;;;0.70;;
64208;SDS011;50527;52.414;13.226;2022-10-03T20:13:42;2.63;;;0.73;;
64208;SDS011;50527;52.414;13.226;2022-10-03T20:16:15;6.90;;;0.63;;
64208;SDS011;50527;52.414;13.226;2022-10-03T20:18:48;4.15;;;0.60;;
64208;SDS011;50527;52.414;13.226;2022-10-03T20:21:17;4.63;;;0.88;;
64208;SDS011;50527;52.414;13.226;2022-10-03T20:23:48;5.03;;;1.10;;
64208;SDS011;50527;52.414;13.226;2022-10-03T20:26:18;6.88;;;1.20;;
64208;SDS011;50527;52.414;13.226;2022-10-03T20:29:23;6.00;;;1.20;;
64208;SDS011;50527;52.414;13.226;2022-10-03T20:32:02;3.53;;;1.10;;
64208;SDS011;50527;52.414;13.226;2022-10-03T20:34:29;10.70;;;1.75;;
64208;SDS011;50527;52.414;13.226;2022-10-03T20:39:35;5.10;;;0.90;;
64208;SDS011;50527;52.414;13.226;2022-10-03T20:42:08;8.13;;;0.70;;
64208;SDS011;50527;52.414;13.226;2022-10-03T20:44:51;4.03;;;0.68;;
64208;SDS011;50527;52.414;13.226;2022-10-03T20:52:32;2.55;;;0.30;;
64208;SDS011;50527;52.414;13.226;2022-10-03T20:54:58;1.63;;;0.47;;
64208;SDS011;50527;52.414;13.226;2022-10-03T20:57:28;5.93;;;0.82;;
64208;SDS011;50527;52.414;13.226;2022-10-03T20:59:59;3.28;;;0.38;;
64208;SDS011;50527;52.414;13.226;2022-10-03T21:02:51;3.70;;;0.40;;
64208;SDS011;50527;52.414;13.226;2022-10-03T21:05:35;4.47;;;0.73;;
64208;SDS011;50527;52.414;13.226;2022-10-03T21:08:34;4.13;;;0.70;;
64208;SDS011;50527;52.414;13.226;2022-10-03T21:19:57;6.30;;;0.55;;
64208;SDS011;50527;52.414;13.226;2022-10-03T21:21:57;5.28;;;0.40;;
64208;SDS011;50527;52.414;13.226;2022-10-03T21:32:37;3.47;;;0.50;;
64208;SDS011;50527;52.414;13.226;2022-10-03T21:35:29;4.25;;;0.70;;
64208;SDS011;50527;52.414;13.226;2022-10-03T21:38:04;6.80;;;0.63;;
64208;SDS011;50527;52.414;13.226;2022-10-03T21:40:47;4.70;;;0.75;;
64208;SDS011;50527;52.414;13.226;2022-10-03T21:46:33;3.80;;;0.68;;
64208;SDS011;50527;52.414;13.226;2022-10-03T21:49:28;8.23;;;0.50;;
64208;SDS011;50527;52.414;13.226;2022-10-03T21:54:50;6.68;;;0.70;;
64208;SDS011;50527;52.414;13.226;2022-10-03T21:57:38;2.92;;;0.50;;
64208;SDS011;50527;52.414;13.226;2022-10-03T22:08:19;8.32;;;0.50;;
64208;SDS011;50527;52.414;13.226;2022-10-03T22:13:36;4.85;;;0.57;;
64208;SDS011;50527;52.414;13.226;2022-10-03T22:21:50;4.05;;;0.32;;
64208;SDS011;50527;52.414;13.226;2022-10-03T22:24:34;7.22;;;0.82;;
64208;SDS011;50527;52.414;13.226;2022-10-03T22:29:54;4.28;;;0.60;;
64208;SDS011;50527;52.414;13.226;2022-10-03T22:32:30;4.43;;;0.40;;
64208;SDS011;50527;52.414;13.226;2022-10-03T22:35:11;7.60;;;0.80;;
64208;SDS011;50527;52.414;13.226;2022-10-03T22:37:54;2.67;;;0.40;;
64208;SDS011;50527;52.414;13.226;2022-10-03T22:40:20;7.53;;;0.50;;
64208;SDS011;50527;52.414;13.226;2022-10-03T22:42:50;5.05;;;0.60;;
64208;SDS011;50527;52.414;13.226;2022-10-03T22:45:18;5.13;;;0.40;;
64208;SDS011;50527;52.414;13.226;2022-10-03T22:47:48;3.92;;;0.47;;
64208;SDS011;50527;52.414;13.226;2022-10-03T22:50:18;2.67;;;0.40;;
64208;SDS011;50527;52.414;13.226;2022-10-03T22:52:48;5.97;;;0.47;;
64208;SDS011;50527;52.414;13.226;2022-10-03T22:55:16;4.93;;;0.52;;
64208;SDS011;50527;52.414;13.226;2022-10-03T22:57:44;5.93;;;0.63;;
64208;SDS011;50527;52.414;13.226;2022-10-03T23:00:14;3.92;;;0.57;;
64208;SDS011;50527;52.414;13.226;2022-10-03T23:02:49;6.13;;;0.55;;
64208;SDS011;50527;52.414;13.226;2022-10-03T23:05:38;5.15;;;0.75;;
64208;SDS011;50527;52.414;13.226;2022-10-03T23:08:38;9.30;;;0.73;;
64208;SDS011;50527;52.414;13.226;2022-10-03T23:11:25;4.88;;;0.60;;
64208;SDS011;50527;52.414;13.226;2022-10-03T23:13:54;8.27;;;0.88;;
64208;SDS011;50527;52.414;13.226;2022-10-03T23:21:50;8.07;;;0.47;;
64208;SDS011;50527;52.414;13.226;2022-10-03T23:38:00;4.95;;;0.50;;
64208;SDS011;50527;52.414;13.226;2022-10-03T23:40:45;7.90;;;0.70;;
64208;SDS011;50527;52.414;13.226;2022-10-03T23:46:25;6.45;;;0.85;;
64208;SDS011;50527;52.414;13.226;2022-10-03T23:48:55;8.50;;;0.80;;
64208;SDS011;50527;52.414;13.226;2022-10-03T23:51:26;9.95;;;0.80;;
64208;SDS011;50527;52.414;13.226;2022-10-03T23:53:55;3.95;;;0.68;;
64208;SDS011;50527;52.414;13.226;2022-10-03T23:56:31;9.35;;;0.57;;
